sensor_id;sensor_type;location;lat;lon;timestamp;temperature;humidity
77839;SHT31;67034;43.226;27.932;2023-09-19T00:00:21;21.72;59.54
77839;SHT31;67034;43.226;27.932;2023-09-19T00:02:53;21.72;59.47
77839;SHT31;67034;43.226;27.932;2023-09-19T00:05:21;21.66;59.59
77839;SHT31;67034;43.226;27.932;2023-09-19T00:07:49;21.62;59.60
77839;SHT31;67034;43.226;27.932;2023-09-19T00:10:16;21.63;59.58
77839;SHT31;67034;43.226;27.932;2023-09-19T00:12:43;21.61;59.53
77839;SHT31;67034;43.226;27.932;2023-09-19T00:15:09;21.61;59.52
77839;SHT31;67034;43.226;27.932;2023-09-19T00:17:36;21.58;59.62
77839;SHT31;67034;43.226;27.932;2023-09-19T00:20:04;21.51;59.65
77839;SHT31;67034;43.226;27.932;2023-09-19T00:22:40;21.45;59.73
77839;SHT31;67034;43.226;27.932;2023-09-19T00:25:07;21.40;59.88
77839;SHT31;67034;43.226;27.932;2023-09-19T00:27:33;21.41;59.85
77839;SHT31;67034;43.226;27.932;2023-09-19T00:30:00;21.44;59.79
77839;SHT31;67034;43.226;27.932;2023-09-19T00:32:26;21.42;59.71
77839;SHT31;67034;43.226;27.932;2023-09-19T00:34:57;21.54;59.54
77839;SHT31;67034;43.226;27.932;2023-09-19T00:37:22;21.47;59.54
77839;SHT31;67034;43.226;27.932;2023-09-19T00:39:49;21.35;59.90
77839;SHT31;67034;43.226;27.932;2023-09-19T00:42:19;21.27;60.18
77839;SHT31;67034;43.226;27.932;2023-09-19T00:44:46;21.23;60.39
77839;SHT31;67034;43.226;27.932;2023-09-19T00:47:12;21.24;60.34
77839;SHT31;67034;43.226;27.932;2023-09-19T00:49:42;21.23;60.50
77839;SHT31;67034;43.226;27.932;2023-09-19T00:52:08;21.24;60.41
77839;SHT31;67034;43.226;27.932;2023-09-19T00:54:36;21.17;60.52
77839;SHT31;67034;43.226;27.932;2023-09-19T00:57:03;21.14;60.52
77839;SHT31;67034;43.226;27.932;2023-09-19T00:59:29;21.06;60.60
77839;SHT31;67034;43.226;27.932;2023-09-19T01:01:56;21.04;60.69
77839;SHT31;67034;43.226;27.932;2023-09-19T01:04:22;21.07;60.61
77839;SHT31;67034;43.226;27.932;2023-09-19T01:06:48;21.10;60.56
77839;SHT31;67034;43.226;27.932;2023-09-19T01:09:18;21.06;60.69
77839;SHT31;67034;43.226;27.932;2023-09-19T01:11:46;21.06;60.67
77839;SHT31;67034;43.226;27.932;2023-09-19T01:14:22;21.03;60.71
77839;SHT31;67034;43.226;27.932;2023-09-19T01:16:56;20.99;60.63
77839;SHT31;67034;43.226;27.932;2023-09-19T01:22:25;20.79;61.07
77839;SHT31;67034;43.226;27.932;2023-09-19T01:25:34;20.71;61.25
77839;SHT31;67034;43.226;27.932;2023-09-19T01:28:20;20.73;61.37
77839;SHT31;67034;43.226;27.932;2023-09-19T01:30:52;20.72;61.54
77839;SHT31;67034;43.226;27.932;2023-09-19T01:33:23;20.77;61.52
77839;SHT31;67034;43.226;27.932;2023-09-19T01:35:49;20.87;61.54
77839;SHT31;67034;43.226;27.932;2023-09-19T01:38:15;20.96;61.38
77839;SHT31;67034;43.226;27.932;2023-09-19T01:40:43;21.04;61.30
77839;SHT31;67034;43.226;27.932;2023-09-19T01:43:20;21.10;61.18
77839;SHT31;67034;43.226;27.932;2023-09-19T01:45:52;21.17;61.07
77839;SHT31;67034;43.226;27.932;2023-09-19T01:48:41;21.20;61.08
77839;SHT31;67034;43.226;27.932;2023-09-19T01:51:09;21.24;60.83
77839;SHT31;67034;43.226;27.932;2023-09-19T01:53:41;21.11;61.37
77839;SHT31;67034;43.226;27.932;2023-09-19T01:56:14;21.08;61.51
77839;SHT31;67034;43.226;27.932;2023-09-19T01:58:46;21.08;61.67
77839;SHT31;67034;43.226;27.932;2023-09-19T02:01:17;21.15;61.56
77839;SHT31;67034;43.226;27.932;2023-09-19T02:03:45;21.23;61.37
77839;SHT31;67034;43.226;27.932;2023-09-19T02:06:14;21.26;61.25
77839;SHT31;67034;43.226;27.932;2023-09-19T02:08:39;21.28;61.11
77839;SHT31;67034;43.226;27.932;2023-09-19T02:11:05;21.13;61.36
77839;SHT31;67034;43.226;27.932;2023-09-19T02:13:31;20.97;61.51
77839;SHT31;67034;43.226;27.932;2023-09-19T02:15:57;20.84;61.68
77839;SHT31;67034;43.226;27.932;2023-09-19T02:18:24;20.73;61.77
77839;SHT31;67034;43.226;27.932;2023-09-19T02:20:50;20.69;61.84
77839;SHT31;67034;43.226;27.932;2023-09-19T02:23:17;20.59;62.06
77839;SHT31;67034;43.226;27.932;2023-09-19T02:25:43;20.56;62.17
77839;SHT31;67034;43.226;27.932;2023-09-19T02:28:09;20.56;62.31
77839;SHT31;67034;43.226;27.932;2023-09-19T02:30:35;20.56;62.50
77839;SHT31;67034;43.226;27.932;2023-09-19T02:33:01;20.57;62.41
77839;SHT31;67034;43.226;27.932;2023-09-19T02:35:28;20.57;62.52
77839;SHT31;67034;43.226;27.932;2023-09-19T02:37:58;20.52;62.58
77839;SHT31;67034;43.226;27.932;2023-09-19T02:40:24;20.49;62.73
77839;SHT31;67034;43.226;27.932;2023-09-19T02:42:53;20.41;62.89
77839;SHT31;67034;43.226;27.932;2023-09-19T02:45:19;20.42;62.77
77839;SHT31;67034;43.226;27.932;2023-09-19T02:47:46;20.36;62.83
77839;SHT31;67034;43.226;27.932;2023-09-19T02:50:12;20.32;62.86
77839;SHT31;67034;43.226;27.932;2023-09-19T02:52:41;20.31;62.96
77839;SHT31;67034;43.226;27.932;2023-09-19T02:55:08;20.34;62.98
77839;SHT31;67034;43.226;27.932;2023-09-19T02:57:34;20.25;63.13
77839;SHT31;67034;43.226;27.932;2023-09-19T03:00:00;20.22;63.24
77839;SHT31;67034;43.226;27.932;2023-09-19T03:02:26;20.22;63.33
77839;SHT31;67034;43.226;27.932;2023-09-19T03:04:53;20.26;63.32
77839;SHT31;67034;43.226;27.932;2023-09-19T03:07:19;20.28;63.25
77839;SHT31;67034;43.226;27.932;2023-09-19T03:09:46;20.32;63.20
77839;SHT31;67034;43.226;27.932;2023-09-19T03:12:11;20.36;63.23
77839;SHT31;67034;43.226;27.932;2023-09-19T03:14:41;20.38;63.01
77839;SHT31;67034;43.226;27.932;2023-09-19T03:17:07;20.21;63.63
77839;SHT31;67034;43.226;27.932;2023-09-19T03:19:34;20.11;63.95
77839;SHT31;67034;43.226;27.932;2023-09-19T03:22:00;20.13;64.02
77839;SHT31;67034;43.226;27.932;2023-09-19T03:24:26;20.15;64.04
77839;SHT31;67034;43.226;27.932;2023-09-19T03:26:53;20.20;63.92
77839;SHT31;67034;43.226;27.932;2023-09-19T03:29:19;20.20;63.89
77839;SHT31;67034;43.226;27.932;2023-09-19T03:31:44;20.21;63.83
77839;SHT31;67034;43.226;27.932;2023-09-19T03:34:11;20.21;63.78
77839;SHT31;67034;43.226;27.932;2023-09-19T03:36:36;20.18;63.81
77839;SHT31;67034;43.226;27.932;2023-09-19T03:39:04;20.18;63.90
77839;SHT31;67034;43.226;27.932;2023-09-19T03:41:30;20.20;63.80
77839;SHT31;67034;43.226;27.932;2023-09-19T03:43:57;20.17;63.86
77839;SHT31;67034;43.226;27.932;2023-09-19T03:46:23;20.18;64.08
77839;SHT31;67034;43.226;27.932;2023-09-19T03:48:50;20.21;64.02
77839;SHT31;67034;43.226;27.932;2023-09-19T03:51:16;20.29;63.91
77839;SHT31;67034;43.226;27.932;2023-09-19T03:53:41;20.35;63.77
77839;SHT31;67034;43.226;27.932;2023-09-19T03:56:07;20.39;63.60
77839;SHT31;67034;43.226;27.932;2023-09-19T03:58:33;20.32;63.58
77839;SHT31;67034;43.226;27.932;2023-09-19T04:01:04;20.25;63.71
77839;SHT31;67034;43.226;27.932;2023-09-19T04:03:32;20.15;63.86
77839;SHT31;67034;43.226;27.932;2023-09-19T04:06:10;20.11;64.02
77839;SHT31;67034;43.226;27.932;2023-09-19T04:08:37;20.10;64.19
77839;SHT31;67034;43.226;27.932;2023-09-19T04:11:03;20.11;64.21
77839;SHT31;67034;43.226;27.932;2023-09-19T04:13:29;20.13;64.14
77839;SHT31;67034;43.226;27.932;2023-09-19T04:15:55;20.01;64.68
77839;SHT31;67034;43.226;27.932;2023-09-19T04:18:22;20.14;64.47
77839;SHT31;67034;43.226;27.932;2023-09-19T04:20:49;20.31;64.12
77839;SHT31;67034;43.226;27.932;2023-09-19T04:23:15;20.41;63.98
77839;SHT31;67034;43.226;27.932;2023-09-19T04:25:41;20.52;63.91
77839;SHT31;67034;43.226;27.932;2023-09-19T04:28:07;20.65;63.68
77839;SHT31;67034;43.226;27.932;2023-09-19T04:30:32;20.75;63.43
77839;SHT31;67034;43.226;27.932;2023-09-19T04:32:58;20.76;63.49
77839;SHT31;67034;43.226;27.932;2023-09-19T04:35:28;20.83;63.39
77839;SHT31;67034;43.226;27.932;2023-09-19T04:37:57;20.94;63.36
77839;SHT31;67034;43.226;27.932;2023-09-19T04:40:23;20.99;63.39
77839;SHT31;67034;43.226;27.932;2023-09-19T04:42:53;20.97;63.46
77839;SHT31;67034;43.226;27.932;2023-09-19T04:45:21;21.00;63.48
77839;SHT31;67034;43.226;27.932;2023-09-19T04:47:47;21.08;63.29
77839;SHT31;67034;43.226;27.932;2023-09-19T04:50:13;20.99;63.54
77839;SHT31;67034;43.226;27.932;2023-09-19T04:52:41;20.99;63.62
77839;SHT31;67034;43.226;27.932;2023-09-19T04:55:08;21.11;63.52
77839;SHT31;67034;43.226;27.932;2023-09-19T04:57:36;21.24;63.23
77839;SHT31;67034;43.226;27.932;2023-09-19T05:00:02;21.38;62.95
77839;SHT31;67034;43.226;27.932;2023-09-19T05:02:35;21.44;62.79
77839;SHT31;67034;43.226;27.932;2023-09-19T05:05:01;21.48;62.59
77839;SHT31;67034;43.226;27.932;2023-09-19T05:07:27;21.61;62.46
77839;SHT31;67034;43.226;27.932;2023-09-19T05:09:54;21.78;62.13
77839;SHT31;67034;43.226;27.932;2023-09-19T05:12:19;21.93;61.86
77839;SHT31;67034;43.226;27.932;2023-09-19T05:14:46;22.03;61.78
77839;SHT31;67034;43.226;27.932;2023-09-19T05:17:11;22.03;61.50
77839;SHT31;67034;43.226;27.932;2023-09-19T05:19:38;22.00;61.06
77839;SHT31;67034;43.226;27.932;2023-09-19T05:22:04;22.09;60.74
77839;SHT31;67034;43.226;27.932;2023-09-19T05:24:30;22.12;60.44
77839;SHT31;67034;43.226;27.932;2023-09-19T05:26:57;22.13;60.54
77839;SHT31;67034;43.226;27.932;2023-09-19T05:29:23;22.17;60.36
77839;SHT31;67034;43.226;27.932;2023-09-19T05:31:49;22.30;60.26
77839;SHT31;67034;43.226;27.932;2023-09-19T05:34:15;22.35;60.24
77839;SHT31;67034;43.226;27.932;2023-09-19T05:36:42;22.47;59.74
77839;SHT31;67034;43.226;27.932;2023-09-19T05:39:08;22.64;59.51
77839;SHT31;67034;43.226;27.932;2023-09-19T05:41:35;22.79;59.23
77839;SHT31;67034;43.226;27.932;2023-09-19T05:44:03;22.90;58.91
77839;SHT31;67034;43.226;27.932;2023-09-19T05:46:30;23.02;58.56
77839;SHT31;67034;43.226;27.932;2023-09-19T05:48:55;23.14;58.56
77839;SHT31;67034;43.226;27.932;2023-09-19T05:51:24;23.39;57.90
77839;SHT31;67034;43.226;27.932;2023-09-19T05:53:50;23.53;57.99
77839;SHT31;67034;43.226;27.932;2023-09-19T05:56:17;23.66;57.96
77839;SHT31;67034;43.226;27.932;2023-09-19T05:58:44;23.69;57.43
77839;SHT31;67034;43.226;27.932;2023-09-19T06:01:11;23.87;57.42
77839;SHT31;67034;43.226;27.932;2023-09-19T06:03:37;23.98;57.50
77839;SHT31;67034;43.226;27.932;2023-09-19T06:06:03;24.07;56.67
77839;SHT31;67034;43.226;27.932;2023-09-19T06:08:31;24.24;56.26
77839;SHT31;67034;43.226;27.932;2023-09-19T06:10:57;24.36;56.19
77839;SHT31;67034;43.226;27.932;2023-09-19T06:13:23;24.42;56.04
77839;SHT31;67034;43.226;27.932;2023-09-19T06:15:51;24.47;56.10
77839;SHT31;67034;43.226;27.932;2023-09-19T06:18:18;24.55;55.92
77839;SHT31;67034;43.226;27.932;2023-09-19T06:20:47;24.63;55.57
77839;SHT31;67034;43.226;27.932;2023-09-19T06:23:13;24.69;55.68
77839;SHT31;67034;43.226;27.932;2023-09-19T06:25:39;24.62;55.85
77839;SHT31;67034;43.226;27.932;2023-09-19T06:28:06;24.65;55.34
77839;SHT31;67034;43.226;27.932;2023-09-19T06:30:34;24.69;55.03
77839;SHT31;67034;43.226;27.932;2023-09-19T06:33:00;24.76;55.02
77839;SHT31;67034;43.226;27.932;2023-09-19T06:35:28;24.66;54.71
77839;SHT31;67034;43.226;27.932;2023-09-19T06:37:55;24.84;54.53
77839;SHT31;67034;43.226;27.932;2023-09-19T06:40:23;25.14;53.84
77839;SHT31;67034;43.226;27.932;2023-09-19T06:42:51;25.21;53.50
77839;SHT31;67034;43.226;27.932;2023-09-19T06:45:18;25.30;53.49
77839;SHT31;67034;43.226;27.932;2023-09-19T06:47:44;25.14;53.47
77839;SHT31;67034;43.226;27.932;2023-09-19T06:50:11;25.13;53.46
77839;SHT31;67034;43.226;27.932;2023-09-19T06:52:41;25.26;53.19
77839;SHT31;67034;43.226;27.932;2023-09-19T06:55:07;25.34;53.31
77839;SHT31;67034;43.226;27.932;2023-09-19T06:57:35;25.38;52.85
77839;SHT31;67034;43.226;27.932;2023-09-19T07:00:00;25.35;53.01
77839;SHT31;67034;43.226;27.932;2023-09-19T07:02:27;25.44;52.69
77839;SHT31;67034;43.226;27.932;2023-09-19T07:04:52;25.45;53.29
77839;SHT31;67034;43.226;27.932;2023-09-19T07:07:18;25.52;53.25
77839;SHT31;67034;43.226;27.932;2023-09-19T07:09:46;25.41;52.48
77839;SHT31;67034;43.226;27.932;2023-09-19T07:12:14;25.45;52.63
77839;SHT31;67034;43.226;27.932;2023-09-19T07:14:39;25.44;52.63
77839;SHT31;67034;43.226;27.932;2023-09-19T07:17:05;25.47;52.73
77839;SHT31;67034;43.226;27.932;2023-09-19T07:19:31;25.41;52.73
77839;SHT31;67034;43.226;27.932;2023-09-19T07:21:57;25.47;52.96
77839;SHT31;67034;43.226;27.932;2023-09-19T07:24:24;25.31;51.94
77839;SHT31;67034;43.226;27.932;2023-09-19T07:26:54;25.38;51.97
77839;SHT31;67034;43.226;27.932;2023-09-19T07:29:20;25.58;51.90
77839;SHT31;67034;43.226;27.932;2023-09-19T07:31:45;25.75;51.86
77839;SHT31;67034;43.226;27.932;2023-09-19T07:34:11;25.99;51.05
77839;SHT31;67034;43.226;27.932;2023-09-19T07:36:37;26.12;51.08
77839;SHT31;67034;43.226;27.932;2023-09-19T07:39:04;26.20;50.70
77839;SHT31;67034;43.226;27.932;2023-09-19T07:41:32;26.09;50.28
77839;SHT31;67034;43.226;27.932;2023-09-19T07:43:59;26.20;50.94
77839;SHT31;67034;43.226;27.932;2023-09-19T07:46:25;26.51;50.18
77839;SHT31;67034;43.226;27.932;2023-09-19T07:48:51;26.81;49.48
77839;SHT31;67034;43.226;27.932;2023-09-19T07:51:17;26.98;49.01
77839;SHT31;67034;43.226;27.932;2023-09-19T07:53:43;27.08;47.65
77839;SHT31;67034;43.226;27.932;2023-09-19T07:56:09;27.06;47.18
77839;SHT31;67034;43.226;27.932;2023-09-19T07:58:35;27.39;46.78
77839;SHT31;67034;43.226;27.932;2023-09-19T08:01:06;27.61;45.70
77839;SHT31;67034;43.226;27.932;2023-09-19T08:03:32;27.86;45.88
77839;SHT31;67034;43.226;27.932;2023-09-19T08:05:58;27.97;45.50
77839;SHT31;67034;43.226;27.932;2023-09-19T08:08:24;28.01;45.31
77839;SHT31;67034;43.226;27.932;2023-09-19T08:10:53;28.19;45.43
77839;SHT31;67034;43.226;27.932;2023-09-19T08:13:18;28.44;45.44
77839;SHT31;67034;43.226;27.932;2023-09-19T08:15:44;28.70;44.55
77839;SHT31;67034;43.226;27.932;2023-09-19T08:18:11;28.90;43.85
77839;SHT31;67034;43.226;27.932;2023-09-19T08:20:37;29.03;43.42
77839;SHT31;67034;43.226;27.932;2023-09-19T08:23:03;29.20;43.20
77839;SHT31;67034;43.226;27.932;2023-09-19T08:25:29;29.18;43.55
77839;SHT31;67034;43.226;27.932;2023-09-19T08:27:55;29.34;43.45
77839;SHT31;67034;43.226;27.932;2023-09-19T08:30:24;28.76;40.85
77839;SHT31;67034;43.226;27.932;2023-09-19T08:32:49;28.17;41.88
77839;SHT31;67034;43.226;27.932;2023-09-19T08:35:17;28.29;42.41
77839;SHT31;67034;43.226;27.932;2023-09-19T08:37:43;28.51;42.49
77839;SHT31;67034;43.226;27.932;2023-09-19T08:40:12;28.86;42.27
77839;SHT31;67034;43.226;27.932;2023-09-19T08:42:48;29.24;41.62
77839;SHT31;67034;43.226;27.932;2023-09-19T08:45:15;29.35;40.73
77839;SHT31;67034;43.226;27.932;2023-09-19T08:47:53;29.47;40.58
77839;SHT31;67034;43.226;27.932;2023-09-19T08:50:27;29.37;40.43
77839;SHT31;67034;43.226;27.932;2023-09-19T08:52:55;29.37;40.58
77839;SHT31;67034;43.226;27.932;2023-09-19T08:55:23;29.50;40.57
77839;SHT31;67034;43.226;27.932;2023-09-19T08:57:59;29.64;40.19
77839;SHT31;67034;43.226;27.932;2023-09-19T09:00:26;29.75;40.05
77839;SHT31;67034;43.226;27.932;2023-09-19T09:02:54;29.62;38.92
77839;SHT31;67034;43.226;27.932;2023-09-19T09:05:24;28.97;40.23
77839;SHT31;67034;43.226;27.932;2023-09-19T09:07:50;28.90;40.60
77839;SHT31;67034;43.226;27.932;2023-09-19T09:10:22;29.07;40.94
77839;SHT31;67034;43.226;27.932;2023-09-19T09:12:48;29.24;41.13
77839;SHT31;67034;43.226;27.932;2023-09-19T09:15:19;28.48;42.67
77839;SHT31;67034;43.226;27.932;2023-09-19T09:17:47;27.90;43.60
77839;SHT31;67034;43.226;27.932;2023-09-19T09:20:13;27.28;44.67
77839;SHT31;67034;43.226;27.932;2023-09-19T09:22:50;27.21;44.93
77839;SHT31;67034;43.226;27.932;2023-09-19T09:25:16;26.95;45.58
77839;SHT31;67034;43.226;27.932;2023-09-19T09:27:43;27.09;45.91
77839;SHT31;67034;43.226;27.932;2023-09-19T09:30:33;27.52;44.90
77839;SHT31;67034;43.226;27.932;2023-09-19T09:33:08;27.18;44.74
77839;SHT31;67034;43.226;27.932;2023-09-19T09:35:34;27.05;45.52
77839;SHT31;67034;43.226;27.932;2023-09-19T09:38:01;27.31;45.39
77839;SHT31;67034;43.226;27.932;2023-09-19T09:40:45;27.32;45.02
77839;SHT31;67034;43.226;27.932;2023-09-19T09:43:25;26.88;45.33
77839;SHT31;67034;43.226;27.932;2023-09-19T09:46:06;26.82;46.29
77839;SHT31;67034;43.226;27.932;2023-09-19T09:48:55;27.28;45.64
77839;SHT31;67034;43.226;27.932;2023-09-19T09:51:39;27.22;46.14
77839;SHT31;67034;43.226;27.932;2023-09-19T09:54:14;27.18;46.09
77839;SHT31;67034;43.226;27.932;2023-09-19T09:56:53;27.13;45.42
77839;SHT31;67034;43.226;27.932;2023-09-19T09:59:20;26.90;45.42
77839;SHT31;67034;43.226;27.932;2023-09-19T10:01:49;26.88;45.96
77839;SHT31;67034;43.226;27.932;2023-09-19T10:04:27;27.22;46.31
77839;SHT31;67034;43.226;27.932;2023-09-19T10:06:54;27.60;45.18
77839;SHT31;67034;43.226;27.932;2023-09-19T10:09:22;27.84;44.17
77839;SHT31;67034;43.226;27.932;2023-09-19T10:12:02;27.73;43.85
77839;SHT31;67034;43.226;27.932;2023-09-19T10:14:30;27.67;44.56
77839;SHT31;67034;43.226;27.932;2023-09-19T10:16:59;27.67;45.20
77839;SHT31;67034;43.226;27.932;2023-09-19T10:19:30;27.59;45.54
77839;SHT31;67034;43.226;27.932;2023-09-19T10:21:59;27.22;46.42
77839;SHT31;67034;43.226;27.932;2023-09-19T10:24:28;27.22;46.84
77839;SHT31;67034;43.226;27.932;2023-09-19T10:26:57;27.53;46.57
77839;SHT31;67034;43.226;27.932;2023-09-19T10:29:24;27.52;46.62
77839;SHT31;67034;43.226;27.932;2023-09-19T10:31:52;27.61;47.99
77839;SHT31;67034;43.226;27.932;2023-09-19T10:34:20;27.59;46.89
77839;SHT31;67034;43.226;27.932;2023-09-19T10:36:48;27.81;47.27
77839;SHT31;67034;43.226;27.932;2023-09-19T10:39:16;28.05;46.63
77839;SHT31;67034;43.226;27.932;2023-09-19T10:41:50;28.02;46.09
77839;SHT31;67034;43.226;27.932;2023-09-19T10:44:21;27.31;47.43
77839;SHT31;67034;43.226;27.932;2023-09-19T10:46:49;26.87;48.40
77839;SHT31;67034;43.226;27.932;2023-09-19T10:49:14;26.73;49.10
77839;SHT31;67034;43.226;27.932;2023-09-19T10:51:43;26.85;49.33
77839;SHT31;67034;43.226;27.932;2023-09-19T10:54:12;26.80;49.45
77839;SHT31;67034;43.226;27.932;2023-09-19T10:56:42;27.32;49.71
77839;SHT31;67034;43.226;27.932;2023-09-19T10:59:14;27.76;48.03
77839;SHT31;67034;43.226;27.932;2023-09-19T11:01:45;27.77;47.65
77839;SHT31;67034;43.226;27.932;2023-09-19T11:04:27;27.89;47.86
77839;SHT31;67034;43.226;27.932;2023-09-19T11:07:01;27.89;47.76
77839;SHT31;67034;43.226;27.932;2023-09-19T11:09:43;28.04;48.32
77839;SHT31;67034;43.226;27.932;2023-09-19T11:12:11;28.55;47.54
77839;SHT31;67034;43.226;27.932;2023-09-19T11:14:40;28.66;46.96
77839;SHT31;67034;43.226;27.932;2023-09-19T11:17:40;28.77;46.72
77839;SHT31;67034;43.226;27.932;2023-09-19T11:20:23;28.11;48.03
77839;SHT31;67034;43.226;27.932;2023-09-19T11:23:23;27.36;49.78
77839;SHT31;67034;43.226;27.932;2023-09-19T11:25:50;27.11;50.56
77839;SHT31;67034;43.226;27.932;2023-09-19T11:28:31;27.36;50.97
77839;SHT31;67034;43.226;27.932;2023-09-19T11:30:59;27.39;51.13
77839;SHT31;67034;43.226;27.932;2023-09-19T11:33:26;27.18;51.91
77839;SHT31;67034;43.226;27.932;2023-09-19T11:35:59;27.11;52.24
77839;SHT31;67034;43.226;27.932;2023-09-19T11:38:59;26.90;52.80
77839;SHT31;67034;43.226;27.932;2023-09-19T11:41:36;26.57;52.67
77839;SHT31;67034;43.226;27.932;2023-09-19T11:44:31;26.84;51.82
77839;SHT31;67034;43.226;27.932;2023-09-19T11:47:01;27.08;50.18
77839;SHT31;67034;43.226;27.932;2023-09-19T11:49:30;27.01;50.91
77839;SHT31;67034;43.226;27.932;2023-09-19T11:51:58;27.12;49.68
77839;SHT31;67034;43.226;27.932;2023-09-19T11:54:27;27.53;50.74
77839;SHT31;67034;43.226;27.932;2023-09-19T11:56:57;27.74;49.66
77839;SHT31;67034;43.226;27.932;2023-09-19T11:59:25;27.77;50.17
77839;SHT31;67034;43.226;27.932;2023-09-19T12:01:56;28.07;50.38
77839;SHT31;67034;43.226;27.932;2023-09-19T12:04:36;28.38;48.64
77839;SHT31;67034;43.226;27.932;2023-09-19T12:07:07;28.31;48.12
77839;SHT31;67034;43.226;27.932;2023-09-19T12:09:38;27.90;48.81
77839;SHT31;67034;43.226;27.932;2023-09-19T12:12:04;27.79;48.99
77839;SHT31;67034;43.226;27.932;2023-09-19T12:14:30;27.33;50.10
77839;SHT31;67034;43.226;27.932;2023-09-19T12:16:57;27.22;50.76
77839;SHT31;67034;43.226;27.932;2023-09-19T12:19:24;27.21;51.34
77839;SHT31;67034;43.226;27.932;2023-09-19T12:21:58;27.04;52.05
77839;SHT31;67034;43.226;27.932;2023-09-19T12:24:26;26.87;52.71
77839;SHT31;67034;43.226;27.932;2023-09-19T12:26:59;27.28;52.09
77839;SHT31;67034;43.226;27.932;2023-09-19T12:29:27;27.77;50.51
77839;SHT31;67034;43.226;27.932;2023-09-19T12:31:57;28.11;50.25
77839;SHT31;67034;43.226;27.932;2023-09-19T12:34:27;28.27;48.65
77839;SHT31;67034;43.226;27.932;2023-09-19T12:37:08;28.52;48.74
77839;SHT31;67034;43.226;27.932;2023-09-19T12:39:42;28.93;48.38
77839;SHT31;67034;43.226;27.932;2023-09-19T12:42:09;29.23;48.36
77839;SHT31;67034;43.226;27.932;2023-09-19T12:44:37;28.86;47.81
77839;SHT31;67034;43.226;27.932;2023-09-19T12:47:12;28.18;48.81
77839;SHT31;67034;43.226;27.932;2023-09-19T12:50:09;27.19;50.91
77839;SHT31;67034;43.226;27.932;2023-09-19T12:52:41;27.04;51.71
77839;SHT31;67034;43.226;27.932;2023-09-19T12:55:07;26.80;51.73
77839;SHT31;67034;43.226;27.932;2023-09-19T12:57:34;26.77;52.87
77839;SHT31;67034;43.226;27.932;2023-09-19T13:00:00;26.75;52.73
77839;SHT31;67034;43.226;27.932;2023-09-19T13:02:26;26.78;53.12
77839;SHT31;67034;43.226;27.932;2023-09-19T13:04:54;26.74;52.91
77839;SHT31;67034;43.226;27.932;2023-09-19T13:07:41;26.48;53.47
77839;SHT31;67034;43.226;27.932;2023-09-19T13:10:11;26.44;53.94
77839;SHT31;67034;43.226;27.932;2023-09-19T13:12:41;26.33;54.37
77839;SHT31;67034;43.226;27.932;2023-09-19T13:15:10;26.41;54.29
77839;SHT31;67034;43.226;27.932;2023-09-19T13:17:46;26.94;53.52
77839;SHT31;67034;43.226;27.932;2023-09-19T13:20:23;27.38;52.22
77839;SHT31;67034;43.226;27.932;2023-09-19T13:22:59;27.56;52.43
77839;SHT31;67034;43.226;27.932;2023-09-19T13:25:35;28.07;51.91
77839;SHT31;67034;43.226;27.932;2023-09-19T13:28:01;28.47;50.66
77839;SHT31;67034;43.226;27.932;2023-09-19T13:30:30;28.68;49.70
77839;SHT31;67034;43.226;27.932;2023-09-19T13:33:06;28.39;48.60
77839;SHT31;67034;43.226;27.932;2023-09-19T13:35:32;28.00;49.53
77839;SHT31;67034;43.226;27.932;2023-09-19T13:37:59;27.73;49.40
77839;SHT31;67034;43.226;27.932;2023-09-19T13:40:26;27.57;50.13
77839;SHT31;67034;43.226;27.932;2023-09-19T13:42:56;27.64;50.47
77839;SHT31;67034;43.226;27.932;2023-09-19T13:45:22;27.86;50.20
77839;SHT31;67034;43.226;27.932;2023-09-19T13:47:50;28.07;49.33
77839;SHT31;67034;43.226;27.932;2023-09-19T13:50:16;28.11;48.25
77839;SHT31;67034;43.226;27.932;2023-09-19T13:52:42;27.98;47.77
77839;SHT31;67034;43.226;27.932;2023-09-19T13:55:09;27.77;47.94
77839;SHT31;67034;43.226;27.932;2023-09-19T13:57:36;27.60;47.95
77839;SHT31;67034;43.226;27.932;2023-09-19T14:00:02;27.38;47.96
77839;SHT31;67034;43.226;27.932;2023-09-19T14:02:30;27.16;48.46
77839;SHT31;67034;43.226;27.932;2023-09-19T14:04:57;27.11;48.23
77839;SHT31;67034;43.226;27.932;2023-09-19T14:07:23;26.90;48.46
77839;SHT31;67034;43.226;27.932;2023-09-19T14:09:49;26.67;49.04
77839;SHT31;67034;43.226;27.932;2023-09-19T14:12:16;26.47;49.94
77839;SHT31;67034;43.226;27.932;2023-09-19T14:14:41;26.53;50.13
77839;SHT31;67034;43.226;27.932;2023-09-19T14:17:07;26.74;51.02
77839;SHT31;67034;43.226;27.932;2023-09-19T14:19:34;26.44;50.61
77839;SHT31;67034;43.226;27.932;2023-09-19T14:22:02;26.05;51.80
77839;SHT31;67034;43.226;27.932;2023-09-19T14:24:33;25.97;52.20
77839;SHT31;67034;43.226;27.932;2023-09-19T14:26:59;26.13;52.81
77839;SHT31;67034;43.226;27.932;2023-09-19T14:29:26;26.43;52.50
77839;SHT31;67034;43.226;27.932;2023-09-19T14:31:52;26.48;51.89
77839;SHT31;67034;43.226;27.932;2023-09-19T14:34:18;26.51;51.91
77839;SHT31;67034;43.226;27.932;2023-09-19T14:36:45;26.73;52.25
77839;SHT31;67034;43.226;27.932;2023-09-19T14:39:10;26.82;51.46
77839;SHT31;67034;43.226;27.932;2023-09-19T14:41:36;26.95;51.93
77839;SHT31;67034;43.226;27.932;2023-09-19T14:44:02;26.92;51.39
77839;SHT31;67034;43.226;27.932;2023-09-19T14:46:30;27.02;51.46
77839;SHT31;67034;43.226;27.932;2023-09-19T14:48:56;27.15;51.55
77839;SHT31;67034;43.226;27.932;2023-09-19T14:51:25;27.13;50.88
77839;SHT31;67034;43.226;27.932;2023-09-19T14:53:51;27.04;51.04
77839;SHT31;67034;43.226;27.932;2023-09-19T14:56:22;27.02;51.14
77839;SHT31;67034;43.226;27.932;2023-09-19T14:58:49;27.02;50.38
77839;SHT31;67034;43.226;27.932;2023-09-19T15:01:15;26.70;50.10
77839;SHT31;67034;43.226;27.932;2023-09-19T15:03:42;26.60;51.22
77839;SHT31;67034;43.226;27.932;2023-09-19T15:06:10;26.58;51.89
77839;SHT31;67034;43.226;27.932;2023-09-19T15:08:45;26.17;53.23
77839;SHT31;67034;43.226;27.932;2023-09-19T15:11:13;26.12;52.70
77839;SHT31;67034;43.226;27.932;2023-09-19T15:13:41;26.02;53.10
77839;SHT31;67034;43.226;27.932;2023-09-19T15:16:08;26.05;52.70
77839;SHT31;67034;43.226;27.932;2023-09-19T15:18:40;25.88;53.30
77839;SHT31;67034;43.226;27.932;2023-09-19T15:21:09;26.12;52.82
77839;SHT31;67034;43.226;27.932;2023-09-19T15:23:37;26.03;53.38
77839;SHT31;67034;43.226;27.932;2023-09-19T15:26:04;25.90;53.50
77839;SHT31;67034;43.226;27.932;2023-09-19T15:28:30;26.02;53.28